Airfield :
LOGIN :

Register | Disclaimer

   EN    FR    IT 

 










Legend :    VFR   Marginal VFR   IFR   Intensive IFR   Very Intensive IFR
Visi :
Ceiling :
>= 8 km
>= 3000ft
5 to 8 km
1000 to 3000 ft
1500m to 5 km
500 to 1000 ft
800 to 1500m
200 to 500 ft
< 800m
< 200 ft
Symbols :   Thunderstorms  Fog  Heavy snow  Heavy precipitations  Wind > 20 kt
SIGMETs :     Misc.  Thunderstorms  Icing  Turbulence  Mountain Waves  Volcanic Ashes






- Airport Elevation : 505 ft
- IATA code : SXB


LFST - Strasbourg

CURRENT METAR :
  • 271200Z AUTO 24013KT 9999 FEW033/// BKN092/// BKN120/// ///TCU 13/07 Q1003 TEMPO 28015G25KT 4000 SHRA

EXPIRED METARs :
  • 271130Z AUTO 24011KT 210V270 9999 FEW030/// BKN036/// BKN048/// ///TCU 12/09 Q1003 TEMPO 28015G25KT 4000 SHRA FEW020CB
  • 271100Z AUTO 23011KT 200V260 9999 -RA FEW023/// BKN029/// BKN035/// ///CB 12/09 Q1003 TEMPO 28015G25KT 4000 SHRA
  • 271030Z AUTO 22010KT 9999 -RA BKN035/// BKN042/// OVC050/// ///TCU 12/09 Q1003 TEMPO 28015G25KT 4000 SHRA FEW020CB
  • 271000Z AUTO 21010KT 9999 -RA FEW026/// SCT032/// BKN049/// //////TCU 11/09 Q1003 TEMPO 28015G25KT 4000 SHRA FEW020CB
  • 270930Z AUTO 20010KT 9999 BKN033/// BKN042/// OVC064/// //////TCU 12/09 Q1003 TEMPO 28015G25KT 4000 SHRA FEW020CB

TAF TAF LFST
Valid from the 27 at 12:00 until the 28 at 12:00 UTC


271100Z 2712/2812 21010KT 9999 FEW020 BKN030
TEMPO 2712/2724 28015G25KT 4000 SHRA SCT020TCU
TEMPO 2800/2808 4000 RA FEW020TCU BKN030



MET'MAP, your aeronautical weather chart ! - Copyright ORBIFLY December 2007 - Disclaimer

ORBIFLY MET'MAP TEAM :

Programming & Development : Alexandra Zaïnal
Original concept : Baudouin d'Aumeries
Technical & hardware support : Manuel Goepfert
Assistance : Marc-Olivier Méhu




SOURCES & CREDITS :

   NOAA